Time;durP1;ratioP1;P1;durP2;ratioP2;P2;SDS_P1;SDS_P2;PMS_P1;PMS_P2;Temp;Humidity;BMP_temperature;BMP_pressure;BME280_temperature;BME280_humidity;BME280_pressure;Samples;Min_cycle;Max_cycle;Signal;HPM_P1;HPM_P2
2024/03/28 00:01:30;;;;;;;;;;;;;;;19.65;40.03;99950.69;102725;1295;63339;-79
2024/03/28 00:03:55;;;;;;;;;;;;;;;19.64;39.99;99943.77;102825;1294;62220;-79
2024/03/28 00:06:21;;;;;;;;;;;;;;;19.64;40.01;99945.74;102703;1295;75325;-81
2024/03/28 00:08:47;;;;;;;;;;;;;;;19.64;40.00;99943.44;102709;1295;62185;-79
2024/03/28 00:11:12;;;;;;;;;;;;;;;19.64;39.92;99943.45;102735;1294;63367;-80
2024/03/28 00:13:38;;;;;;;;;;;;;;;19.64;40.05;99941.68;102719;1295;62382;-80
2024/03/28 00:16:04;;;;;;;;;;;;;;;19.65;39.99;99937.34;102745;1304;62129;-81
2024/03/28 00:18:29;;;;;;;;;;;;;;;19.64;40.08;99933.80;102682;1294;76273;-79
2024/03/28 00:20:56;;;;;;;;;;;;;;;19.64;39.96;99926.34;102724;1295;62217;-80
2024/03/28 00:23:21;;;;;;;;;;;;;;;19.64;39.97;99919.55;102781;1294;62300;-81
2024/03/28 00:25:56;;;;;;;;;;;;;;;19.64;40.09;99916.50;102703;1298;63356;-80
2024/03/28 00:28:22;;;;;;;;;;;;;;;19.64;40.00;99909.56;102700;1294;76117;-81
2024/03/28 00:30:48;;;;;;;;;;;;;;;19.64;39.85;99899.92;102630;1298;63274;-80
2024/03/28 00:33:14;;;;;;;;;;;;;;;19.63;40.00;99894.09;102744;1293;62222;-80
2024/03/28 00:35:43;;;;;;;;;;;;;;;19.63;40.02;99892.45;102702;1294;62890;-82
2024/03/28 00:38:08;;;;;;;;;;;;;;;19.63;39.99;99890.34;102752;1294;76042;-80
2024/03/28 00:40:34;;;;;;;;;;;;;;;19.63;40.11;99886.82;102712;1295;62464;-80
2024/03/28 00:43:00;;;;;;;;;;;;;;;19.63;40.06;99880.40;102718;1295;62283;-79
2024/03/28 00:45:25;;;;;;;;;;;;;;;19.63;40.00;99883.75;102709;1298;62643;-80
2024/03/28 00:47:51;;;;;;;;;;;;;;;19.63;40.02;99883.41;102733;1295;62235;-79
2024/03/28 00:50:16;;;;;;;;;;;;;;;19.63;39.98;99879.86;102686;1295;76290;-81
2024/03/28 00:52:42;;;;;;;;;;;;;;;19.62;40.00;99869.54;102702;1297;62247;-80
2024/03/28 00:55:10;;;;;;;;;;;;;;;19.62;39.98;99863.48;102725;1296;62235;-80
2024/03/28 00:57:36;;;;;;;;;;;;;;;19.62;40.09;99862.21;102655;1292;62222;-79
2024/03/28 01:00:02;;;;;;;;;;;;;;;19.62;39.95;99860.57;102729;1297;62357;-79
2024/03/28 01:02:27;;;;;;;;;;;;;;;19.62;39.95;99857.21;102926;1292;62210;-80
2024/03/28 01:04:53;;;;;;;;;;;;;;;19.62;40.02;99858.65;102643;1299;62121;-83
2024/03/28 01:07:18;;;;;;;;;;;;;;;19.62;40.10;99855.97;102772;1295;62268;-82
2024/03/28 01:09:45;;;;;;;;;;;;;;;19.62;39.89;99859.72;102724;1293;62198;-79
2024/03/28 01:12:11;;;;;;;;;;;;;;;19.62;39.94;99862.77;102742;1291;75424;-80
2024/03/28 01:14:36;;;;;;;;;;;;;;;19.62;40.08;99861.84;102706;1294;63484;-81
2024/03/28 01:17:02;;;;;;;;;;;;;;;19.62;40.07;99854.23;102701;1293;62579;-80
2024/03/28 01:19:27;;;;;;;;;;;;;;;19.61;40.01;99852.13;102693;1294;62124;-80
2024/03/28 01:21:53;;;;;;;;;;;;;;;19.62;39.99;99844.96;102804;1292;63657;-79
2024/03/28 01:24:18;;;;;;;;;;;;;;;19.62;40.01;99842.23;102703;1293;75225;-79
2024/03/28 01:26:44;;;;;;;;;;;;;;;19.62;40.02;99839.94;102735;1295;62162;-79
2024/03/28 01:29:10;;;;;;;;;;;;;;;19.61;40.01;99836.59;102727;1292;72154;-82
2024/03/28 01:31:35;;;;;;;;;;;;;;;19.60;40.05;99838.05;102716;1294;62209;-80
2024/03/28 01:34:01;;;;;;;;;;;;;;;19.61;39.94;99840.36;102745;1294;62386;-82
2024/03/28 01:36:27;;;;;;;;;;;;;;;19.61;39.92;99844.27;102752;1294;62516;-79
2024/03/28 01:38:52;;;;;;;;;;;;;;;19.61;39.96;99840.35;102717;1295;62565;-82
2024/03/28 01:41:18;;;;;;;;;;;;;;;19.60;40.06;99843.05;102646;1297;62315;-79
2024/03/28 01:43:44;;;;;;;;;;;;;;;19.60;40.03;99833.78;102507;1301;62210;-80
2024/03/28 01:46:10;;;;;;;;;;;;;;;19.60;40.03;99830.06;102580;1298;63589;-80
2024/03/28 01:48:35;;;;;;;;;;;;;;;19.60;40.11;99825.41;102627;1293;63468;-80
2024/03/28 01:51:02;;;;;;;;;;;;;;;19.60;40.03;99822.90;102603;1301;63450;-80
2024/03/28 01:53:27;;;;;;;;;;;;;;;19.59;39.95;99821.71;102651;1298;62491;-79
2024/03/28 01:55:53;;;;;;;;;;;;;;;19.59;40.09;99818.52;102531;1298;62200;-80
2024/03/28 01:58:19;;;;;;;;;;;;;;;19.60;40.00;99817.59;102552;1298;62205;-80
2024/03/28 02:00:45;;;;;;;;;;;;;;;19.60;39.90;99820.63;102551;1294;63475;-79
2024/03/28 02:03:10;;;;;;;;;;;;;;;19.59;40.15;99812.42;102613;1295;62277;-80
2024/03/28 02:05:36;;;;;;;;;;;;;;;19.59;39.96;99812.30;102595;1298;62294;-80
2024/03/28 02:08:01;;;;;;;;;;;;;;;19.59;40.03;99813.88;102563;1300;62376;-80
2024/03/28 02:10:28;;;;;;;;;;;;;;;19.59;39.93;99819.02;102600;1298;62207;-80
2024/03/28 02:12:55;;;;;;;;;;;;;;;19.59;40.05;99818.69;102578;1295;62188;-80
2024/03/28 02:15:20;;;;;;;;;;;;;;;19.59;40.12;99809.41;102796;1295;63472;-82
2024/03/28 02:17:46;;;;;;;;;;;;;;;19.59;40.10;99798.54;102550;1297;62306;-80
2024/03/28 02:20:12;;;;;;;;;;;;;;;19.59;40.11;99793.22;102912;1290;62178;-79
2024/03/28 02:22:38;;;;;;;;;;;;;;;19.59;39.99;99796.23;102182;1293;783108;-81
2024/03/28 02:25:07;;;;;;;;;;;;;;;19.59;40.06;99791.77;102681;1293;62876;-79
2024/03/28 02:27:34;;;;;;;;;;;;;;;19.59;39.96;99792.85;102745;1291;62108;-82
2024/03/28 02:30:00;;;;;;;;;;;;;;;19.59;40.12;99793.04;102757;1294;62200;-81
2024/03/28 02:32:26;;;;;;;;;;;;;;;19.59;39.97;99793.22;102797;1291;62226;-79
2024/03/28 02:34:52;;;;;;;;;;;;;;;19.58;39.96;99781.48;102705;1291;63340;-80
2024/03/28 02:37:18;;;;;;;;;;;;;;;19.59;39.96;99778.39;102735;1294;63431;-80
2024/03/28 02:39:43;;;;;;;;;;;;;;;19.58;40.04;99776.30;102734;1295;63271;-79
2024/03/28 02:42:09;;;;;;;;;;;;;;;19.58;40.09;99773.45;102766;1292;62718;-81
2024/03/28 02:44:34;;;;;;;;;;;;;;;19.57;40.08;99775.64;102694;1291;62175;-80
2024/03/28 02:47:00;;;;;;;;;;;;;;;19.58;40.08;99776.16;102769;1292;62216;-81
2024/03/28 02:49:25;;;;;;;;;;;;;;;19.58;40.03;99767.05;102691;1291;63276;-80
2024/03/28 02:51:51;;;;;;;;;;;;;;;19.58;39.99;99760.98;102593;1298;62143;-81
2024/03/28 02:54:16;;;;;;;;;;;;;;;19.57;39.98;99759.23;102794;1297;62240;-80
2024/03/28 02:56:42;;;;;;;;;;;;;;;19.57;40.06;99760.67;102707;1291;62642;-81
2024/03/28 02:59:08;;;;;;;;;;;;;;;19.57;40.06;99760.13;102690;1293;62203;-81
2024/03/28 03:01:33;;;;;;;;;;;;;;;19.57;40.03;99752.98;102768;1294;62293;-81
2024/03/28 03:03:59;;;;;;;;;;;;;;;19.57;40.05;99753.73;102641;1296;62177;-79
2024/03/28 03:06:25;;;;;;;;;;;;;;;19.57;39.99;99760.73;102725;1294;62365;-80
2024/03/28 03:08:51;;;;;;;;;;;;;;;19.56;40.07;99764.30;102752;1295;62444;-81
2024/03/28 03:11:16;;;;;;;;;;;;;;;19.56;40.09;99758.07;102674;1291;62110;-79
2024/03/28 03:13:42;;;;;;;;;;;;;;;19.56;40.05;99764.48;102678;1292;62208;-83
2024/03/28 03:16:08;;;;;;;;;;;;;;;19.56;40.09;99764.84;102767;1292;62251;-80
2024/03/28 03:18:34;;;;;;;;;;;;;;;19.56;40.10;99762.72;102707;1294;63561;-79
2024/03/28 03:21:01;;;;;;;;;;;;;;;19.56;39.97;99759.33;102689;1292;62133;-81
2024/03/28 03:23:35;;;;;;;;;;;;;;;19.56;40.08;99758.46;102742;1294;62263;-81
2024/03/28 03:26:11;;;;;;;;;;;;;;;19.56;40.01;99762.21;102696;1290;76210;-80
2024/03/28 03:36:50;;;;;;;;;;;;;;;19.55;40.11;99734.61;102711;1292;76116;-81
2024/03/28 03:39:16;;;;;;;;;;;;;;;19.55;40.06;99729.07;102691;1294;63444;-80
2024/03/28 03:41:42;;;;;;;;;;;;;;;19.54;40.08;99729.86;102712;1292;63453;-80
2024/03/28 03:44:08;;;;;;;;;;;;;;;19.55;40.12;99741.04;102719;1291;63394;-80
2024/03/28 03:46:33;;;;;;;;;;;;;;;19.55;40.03;99748.39;102736;1292;62104;-80
2024/03/28 03:48:59;;;;;;;;;;;;;;;19.55;39.93;99751.58;102733;1294;62145;-79
2024/03/28 03:51:24;;;;;;;;;;;;;;;19.55;39.91;99757.13;102891;1292;63491;-81
2024/03/28 03:53:50;;;;;;;;;;;;;;;19.55;40.08;99757.64;102706;1292;63520;-80
2024/03/28 03:56:15;;;;;;;;;;;;;;;19.54;40.06;99752.34;102769;1294;63168;-79
2024/03/28 03:58:41;;;;;;;;;;;;;;;19.54;40.27;99737.19;102746;1294;62764;-80
2024/03/28 04:01:07;;;;;;;;;;;;;;;19.54;40.18;99739.86;102760;1292;62313;-80
2024/03/28 04:03:33;;;;;;;;;;;;;;;19.54;40.05;99736.84;102725;1292;62193;-81
2024/03/28 04:06:02;;;;;;;;;;;;;;;19.54;40.12;99734.50;102734;1291;63247;-81
2024/03/28 04:08:27;;;;;;;;;;;;;;;19.54;40.14;99743.27;102708;1291;73643;-80
2024/03/28 04:10:54;;;;;;;;;;;;;;;19.54;40.11;99748.08;102738;1294;63653;-80
2024/03/28 04:13:20;;;;;;;;;;;;;;;19.54;40.19;99749.52;102709;1290;62396;-79
2024/03/28 04:15:45;;;;;;;;;;;;;;;19.54;40.17;99739.17;102732;1291;62213;-80
2024/03/28 04:18:11;;;;;;;;;;;;;;;19.54;40.12;99710.98;102751;1291;62229;-81
2024/03/28 04:20:38;;;;;;;;;;;;;;;19.54;40.09;99708.86;102713;1294;62280;-80
2024/03/28 04:23:03;;;;;;;;;;;;;;;19.54;40.01;99724.38;102797;1292;62205;-82
2024/03/28 04:25:29;;;;;;;;;;;;;;;19.54;39.92;99724.19;102726;1294;62498;-81
2024/03/28 04:27:55;;;;;;;;;;;;;;;19.54;40.10;99726.85;102754;1292;62194;-80
2024/03/28 04:30:23;;;;;;;;;;;;;;;19.54;39.85;99734.51;102744;1292;63502;-81
2024/03/28 04:32:48;;;;;;;;;;;;;;;19.54;39.95;99742.17;102760;1292;74041;-80
2024/03/28 04:35:14;;;;;;;;;;;;;;;19.55;39.96;99743.73;102727;1294;62197;-81
2024/03/28 04:37:40;;;;;;;;;;;;;;;19.54;40.05;99741.46;102713;1292;63369;-81
2024/03/28 04:40:09;;;;;;;;;;;;;;;19.54;39.92;99738.80;102672;1292;62246;-81
2024/03/28 04:42:35;;;;;;;;;;;;;;;19.53;39.82;99740.83;102740;1292;76195;-80
2024/03/28 04:45:00;;;;;;;;;;;;;;;19.53;39.87;99739.98;102722;1294;62203;-80
2024/03/28 04:47:26;;;;;;;;;;;;;;;19.52;39.88;99742.05;102707;1291;62542;-80
2024/03/28 04:49:53;;;;;;;;;;;;;;;19.52;39.76;99746.14;102721;1294;62203;-80
2024/03/28 04:52:18;;;;;;;;;;;;;;;19.51;39.83;99760.13;102732;1291;62193;-81
2024/03/28 04:54:44;;;;;;;;;;;;;;;19.51;39.72;99759.05;102745;1291;62267;-81
2024/03/28 04:57:10;;;;;;;;;;;;;;;19.50;39.73;99747.48;102731;1292;63458;-81
2024/03/28 04:59:36;;;;;;;;;;;;;;;19.51;39.73;99746.56;102754;1293;62084;-81
2024/03/28 05:02:02;;;;;;;;;;;;;;;19.50;39.75;99737.69;102700;1294;62240;-81
2024/03/28 05:04:27;;;;;;;;;;;;;;;19.50;39.72;99731.98;102725;1294;62156;-80
2024/03/28 05:06:53;;;;;;;;;;;;;;;19.49;39.79;99731.17;102849;1292;62185;-81
2024/03/28 05:09:20;;;;;;;;;;;;;;;19.49;39.79;99726.91;102738;1291;62177;-81
2024/03/28 05:11:46;;;;;;;;;;;;;;;19.49;39.74;99720.15;102872;1295;62441;-79
2024/03/28 05:14:11;;;;;;;;;;;;;;;19.48;39.80;99718.44;102901;1292;62203;-78
2024/03/28 05:16:38;;;;;;;;;;;;;;;19.47;39.71;99722.58;103157;1290;75286;-81
2024/03/28 05:19:04;;;;;;;;;;;;;;;19.47;39.76;99724.21;102988;1291;62190;-81
2024/03/28 05:21:30;;;;;;;;;;;;;;;19.47;39.59;99724.75;102975;1292;62346;-79
2024/03/28 05:23:55;;;;;;;;;;;;;;;19.47;39.73;99713.15;102975;1292;63386;-80
2024/03/28 05:26:21;;;;;;;;;;;;;;;19.47;39.69;99705.28;103005;1292;62111;-80
2024/03/28 05:28:47;;;;;;;;;;;;;;;19.47;39.65;99721.73;102992;1297;62245;-78
2024/03/28 05:31:17;;;;;;;;;;;;;;;19.47;39.72;99716.05;102924;1297;62191;-79
2024/03/28 05:33:44;;;;;;;;;;;;;;;19.47;39.56;99710.69;102921;1295;62208;-79
2024/03/28 05:36:11;;;;;;;;;;;;;;;19.47;39.60;99705.68;103223;1291;73542;-79
2024/03/28 05:38:37;;;;;;;;;;;;;;;19.47;39.63;99708.39;102724;1292;62243;-80
2024/03/28 05:41:03;;;;;;;;;;;;;;;19.46;39.47;99707.35;102972;1292;63228;-79
2024/03/28 05:43:28;;;;;;;;;;;;;;;19.44;39.58;99707.90;102822;1294;62380;-80
2024/03/28 05:45:54;;;;;;;;;;;;;;;19.39;39.45;99706.30;103323;1297;62253;-80
2024/03/28 05:48:19;;;;;;;;;;;;;;;19.32;39.41;99697.98;102896;1295;62189;-79
2024/03/28 05:50:45;;;;;;;;;;;;;;;19.28;39.41;99700.98;103263;1295;62348;-80
2024/03/28 05:53:12;;;;;;;;;;;;;;;19.22;39.54;99710.01;103586;1294;62037;-80
2024/03/28 05:55:39;;;;;;;;;;;;;;;19.15;39.37;99711.77;103819;1294;62008;-80
2024/03/28 05:58:04;;;;;;;;;;;;;;;19.09;39.47;99719.72;103564;1293;62203;-80
2024/03/28 06:00:30;;;;;;;;;;;;;;;19.06;39.54;99722.50;103955;1294;64451;-80
2024/03/28 06:02:56;;;;;;;;;;;;;;;19.04;39.72;99708.35;103925;1297;62352;-80
2024/03/28 06:05:22;;;;;;;;;;;;;;;19.04;39.61;99697.52;103971;1294;62131;-79
2024/03/28 06:07:47;;;;;;;;;;;;;;;19.01;39.62;99706.89;104223;1295;62231;-80
2024/03/28 06:10:13;;;;;;;;;;;;;;;18.99;39.85;99705.35;103902;1300;73458;-80
2024/03/28 06:12:39;;;;;;;;;;;;;;;19.01;39.63;99700.41;103949;1294;63367;-82
2024/03/28 06:15:04;;;;;;;;;;;;;;;19.02;39.75;99707.29;104347;1291;62460;-81
2024/03/28 06:17:30;;;;;;;;;;;;;;;19.04;39.74;99719.59;104283;1294;62010;-79
2024/03/28 06:19:55;;;;;;;;;;;;;;;19.06;39.89;99733.01;104441;1293;61381;-81
2024/03/28 06:22:21;;;;;;;;;;;;;;;19.09;39.80;99736.14;104572;1292;72563;-81
2024/03/28 06:24:47;;;;;;;;;;;;;;;19.09;39.67;99739.52;104285;1292;62054;-82
2024/03/28 06:27:12;;;;;;;;;;;;;;;19.09;39.79;99734.88;104481;1293;59830;-80
2024/03/28 06:29:49;;;;;;;;;;;;;;;19.12;39.81;99733.29;104346;1294;60387;-80
2024/03/28 06:32:24;;;;;;;;;;;;;;;19.13;39.82;99737.98;104154;1295;73409;-80
2024/03/28 06:34:53;;;;;;;;;;;;;;;19.14;39.68;99745.81;104051;1294;75569;-79
2024/03/28 06:37:18;;;;;;;;;;;;;;;19.08;39.66;99744.27;103629;1293;62183;-80
2024/03/28 06:39:45;;;;;;;;;;;;;;;19.07;39.75;99745.44;103861;1294;62402;-80
2024/03/28 06:42:10;;;;;;;;;;;;;;;19.07;39.79;99748.45;103756;1294;62221;-81
2024/03/28 06:44:36;;;;;;;;;;;;;;;19.08;39.72;99752.46;103746;1293;62409;-79
2024/03/28 06:47:01;;;;;;;;;;;;;;;19.10;39.84;99759.96;103569;1297;62089;-80
2024/03/28 06:49:28;;;;;;;;;;;;;;;19.12;39.73;99763.42;103812;1291;63295;-79
2024/03/28 06:51:53;;;;;;;;;;;;;;;19.13;39.61;99767.42;103992;1291;62202;-79
2024/03/28 06:54:20;;;;;;;;;;;;;;;19.14;39.67;99759.36;104152;1291;72418;-80
2024/03/28 06:56:46;;;;;;;;;;;;;;;19.12;39.67;99761.46;104197;1290;75250;-80
2024/03/28 06:59:13;;;;;;;;;;;;;;;19.05;39.58;99766.98;104093;1294;62286;-80
2024/03/28 07:01:40;;;;;;;;;;;;;;;19.02;39.86;99762.95;103905;1291;62124;-80
2024/03/28 07:04:06;;;;;;;;;;;;;;;19.00;39.87;99757.22;104028;1291;73262;-80
2024/03/28 07:06:33;;;;;;;;;;;;;;;19.00;39.85;99756.81;104195;1295;75352;-80
2024/03/28 07:08:58;;;;;;;;;;;;;;;19.03;39.87;99764.33;104041;1291;61652;-79
2024/03/28 07:11:25;;;;;;;;;;;;;;;19.05;40.00;99766.61;103885;1291;62197;-80
2024/03/28 07:13:51;;;;;;;;;;;;;;;19.07;39.92;99763.73;103793;1291;62061;-80
2024/03/28 07:16:16;;;;;;;;;;;;;;;19.11;39.93;99762.62;103736;1294;63686;-78
2024/03/28 07:18:42;;;;;;;;;;;;;;;19.13;39.84;99758.29;103787;1293;62142;-79
2024/03/28 07:21:08;;;;;;;;;;;;;;;19.16;39.88;99767.05;103810;1291;62220;-79
2024/03/28 07:23:34;;;;;;;;;;;;;;;19.18;39.95;99772.74;103738;1292;62056;-79
2024/03/28 07:26:00;;;;;;;;;;;;;;;19.20;39.78;99772.02;104257;1291;62233;-79
2024/03/28 07:28:25;;;;;;;;;;;;;;;19.22;39.86;99755.63;104345;1291;62277;-81
2024/03/28 07:30:51;;;;;;;;;;;;;;;19.24;39.86;99750.11;104128;1290;64397;-81
2024/03/28 07:33:16;;;;;;;;;;;;;;;19.25;39.85;99753.94;104598;1291;62089;-81
2024/03/28 07:35:42;;;;;;;;;;;;;;;19.26;39.94;99753.33;104351;1291;61973;-81
2024/03/28 07:38:07;;;;;;;;;;;;;;;19.28;40.10;99761.39;104022;1291;62095;-80
2024/03/28 07:40:33;;;;;;;;;;;;;;;19.30;40.12;99764.13;104212;1290;63290;-80
2024/03/28 07:42:59;;;;;;;;;;;;;;;19.31;40.07;99761.35;103969;1291;62315;-80
2024/03/28 07:45:25;;;;;;;;;;;;;;;19.32;40.06;99766.06;103800;1295;62090;-79
2024/03/28 07:47:50;;;;;;;;;;;;;;;19.34;39.99;99765.96;104213;1291;62223;-80
2024/03/28 07:50:16;;;;;;;;;;;;;;;19.33;39.80;99779.05;103887;1292;62206;-79
2024/03/28 07:52:43;;;;;;;;;;;;;;;19.32;40.12;99788.06;103911;1290;62321;-80
2024/03/28 07:55:08;;;;;;;;;;;;;;;19.30;40.15;99789.27;104079;1291;62013;-78
2024/03/28 07:57:34;;;;;;;;;;;;;;;19.28;40.11;99794.08;104066;1290;62356;-78
2024/03/28 08:00:00;;;;;;;;;;;;;;;19.28;40.41;99799.94;104142;1291;62163;-79
2024/03/28 08:02:25;;;;;;;;;;;;;;;19.31;40.42;99808.81;103951;1291;62143;-79
2024/03/28 08:04:51;;;;;;;;;;;;;;;19.32;40.42;99807.48;103821;1291;62169;-79
2024/03/28 08:07:17;;;;;;;;;;;;;;;19.34;40.61;99821.81;104295;1291;62165;-79
2024/03/28 08:09:43;;;;;;;;;;;;;;;19.35;40.65;99841.48;103937;1290;62165;-81
2024/03/28 08:12:08;;;;;;;;;;;;;;;19.35;40.66;99869.34;104092;1294;62203;-80
2024/03/28 08:14:35;;;;;;;;;;;;;;;19.34;40.59;99869.98;104063;1291;62216;-81
2024/03/28 08:17:00;;;;;;;;;;;;;;;19.33;40.78;99885.90;103854;1290;62031;-80
2024/03/28 08:19:26;;;;;;;;;;;;;;;19.33;40.67;99897.16;103920;1291;63483;-80
2024/03/28 08:21:52;;;;;;;;;;;;;;;19.32;40.81;99910.27;103974;1294;62083;-80
2024/03/28 08:24:22;;;;;;;;;;;;;;;19.32;40.70;99920.63;104372;1291;62286;-80
2024/03/28 08:26:48;;;;;;;;;;;;;;;19.31;40.67;99931.59;104448;1291;74975;-80
2024/03/28 08:29:15;;;;;;;;;;;;;;;19.30;40.67;99948.59;104209;1291;62188;-80
2024/03/28 08:31:41;;;;;;;;;;;;;;;19.30;40.66;99952.51;103976;1291;62082;-81
2024/03/28 08:34:07;;;;;;;;;;;;;;;19.30;40.75;99955.16;103587;1291;65372;-81
2024/03/28 08:36:33;;;;;;;;;;;;;;;19.30;40.79;99944.45;104005;1291;62214;-81
2024/03/28 08:38:59;;;;;;;;;;;;;;;19.31;40.64;99939.27;104020;1292;61957;-81
2024/03/28 08:41:24;;;;;;;;;;;;;;;19.31;40.73;99920.19;104081;1292;62287;-81
2024/03/28 08:43:50;;;;;;;;;;;;;;;19.30;40.64;99926.78;104044;1292;62117;-79
2024/03/28 08:46:17;;;;;;;;;;;;;;;19.30;40.66;99923.59;104001;1291;73708;-79
2024/03/28 08:48:46;;;;;;;;;;;;;;;19.30;40.61;99925.38;104101;1290;75277;-79
2024/03/28 08:51:17;;;;;;;;;;;;;;;19.30;40.67;99931.13;105844;1290;62097;-78
2024/03/28 08:53:42;;;;;;;;;;;;;;;19.30;40.57;99929.32;104559;1291;60048;-78
2024/03/28 08:56:08;;;;;;;;;;;;;;;19.28;40.59;99933.05;104565;1291;62694;-80
2024/03/28 08:58:34;;;;;;;;;;;;;;;19.27;40.78;99938.98;104064;1291;62172;-79
2024/03/28 09:01:00;;;;;;;;;;;;;;;19.30;41.20;99949.45;104414;1291;62191;-79
2024/03/28 09:03:27;;;;;;;;;;;;;;;19.34;41.21;99949.51;104338;1291;62068;-80
2024/03/28 09:05:53;;;;;;;;;;;;;;;19.37;41.30;99943.76;104128;1291;62055;-80
2024/03/28 09:08:19;;;;;;;;;;;;;;;19.39;41.42;99941.27;104039;1291;62242;-80
2024/03/28 09:11:06;;;;;;;;;;;;;;;19.40;41.42;99925.65;104252;1291;62217;-80
2024/03/28 09:13:32;;;;;;;;;;;;;;;19.40;41.36;99926.02;103958;1290;62064;-80
2024/03/28 09:15:57;;;;;;;;;;;;;;;19.40;41.46;99917.83;104284;1291;62170;-81
2024/03/28 09:18:23;;;;;;;;;;;;;;;19.40;41.28;99904.23;104317;1291;62248;-80
2024/03/28 09:20:48;;;;;;;;;;;;;;;19.41;41.37;99896.89;104436;1291;62117;-81
2024/03/28 09:23:14;;;;;;;;;;;;;;;19.41;41.34;99910.05;104297;1292;62206;-81
2024/03/28 09:25:40;;;;;;;;;;;;;;;19.40;41.25;99914.45;104168;1291;62072;-81
2024/03/28 09:28:05;;;;;;;;;;;;;;;19.41;41.29;99902.45;104147;1291;62582;-81
2024/03/28 09:30:31;;;;;;;;;;;;;;;19.41;41.39;99907.88;103873;1297;62304;-81
2024/03/28 09:32:56;;;;;;;;;;;;;;;19.43;41.46;99899.73;104036;1291;62573;-81
2024/03/28 09:35:22;;;;;;;;;;;;;;;19.45;41.51;99901.24;104094;1291;62054;-81
2024/03/28 09:37:47;;;;;;;;;;;;;;;19.47;41.36;99910.56;104026;1291;62124;-81
2024/03/28 09:40:16;;;;;;;;;;;;;;;19.48;41.42;99919.77;103947;1291;62194;-81
2024/03/28 09:42:45;;;;;;;;;;;;;;;19.47;41.53;99922.47;103746;1297;75824;-79
2024/03/28 09:45:12;;;;;;;;;;;;;;;19.47;41.46;99914.48;104063;1290;62063;-80
2024/03/28 09:47:38;;;;;;;;;;;;;;;19.45;41.64;99900.52;104168;1291;62118;-81
2024/03/28 09:50:07;;;;;;;;;;;;;;;19.44;41.53;99913.23;104520;1291;62224;-81
2024/03/28 09:52:32;;;;;;;;;;;;;;;19.44;41.45;99908.23;105248;1291;75554;-81
2024/03/28 09:54:58;;;;;;;;;;;;;;;19.46;41.74;99899.38;105050;1291;62294;-80
2024/03/28 09:57:23;;;;;;;;;;;;;;;19.53;42.17;99906.45;105049;1291;62070;-81
2024/03/28 09:59:50;;;;;;;;;;;;;;;19.61;42.39;99907.96;104985;1291;62214;-81
2024/03/28 10:02:27;;;;;;;;;;;;;;;19.68;42.54;99918.13;104558;1291;62351;-78
2024/03/28 10:04:57;;;;;;;;;;;;;;;19.73;42.84;99916.13;104544;1291;63630;-80
2024/03/28 10:07:22;;;;;;;;;;;;;;;19.76;42.97;99931.74;104918;1291;62015;-80
2024/03/28 10:09:49;;;;;;;;;;;;;;;19.78;43.03;99923.09;104853;1291;62221;-81
2024/03/28 10:12:15;;;;;;;;;;;;;;;19.79;43.12;99926.71;105947;1291;60272;-79
2024/03/28 10:14:43;;;;;;;;;;;;;;;19.81;43.05;99930.17;105321;1290;62158;-80
2024/03/28 10:17:10;;;;;;;;;;;;;;;19.82;43.15;99925.14;104611;1291;60914;-80
2024/03/28 10:19:39;;;;;;;;;;;;;;;19.81;43.01;99931.59;104474;1291;73024;-80
2024/03/28 10:22:09;;;;;;;;;;;;;;;19.80;43.05;99934.70;103766;1291;75371;-79
2024/03/28 10:24:36;;;;;;;;;;;;;;;19.80;43.05;99937.39;103840;1291;62056;-81
2024/03/28 10:27:11;;;;;;;;;;;;;;;19.81;43.00;99935.73;104124;1291;62297;-81
2024/03/28 10:29:36;;;;;;;;;;;;;;;19.81;42.88;99944.13;104244;1291;73818;-81
2024/03/28 10:32:05;;;;;;;;;;;;;;;19.82;42.79;99946.76;104079;1294;62197;-81
2024/03/28 10:34:31;;;;;;;;;;;;;;;19.80;42.75;99939.20;104065;1295;62111;-82
2024/03/28 10:37:04;;;;;;;;;;;;;;;19.78;42.76;99947.20;104343;1292;62210;-81
2024/03/28 10:39:30;;;;;;;;;;;;;;;19.78;42.54;99944.67;104406;1290;72517;-81
2024/03/28 10:41:55;;;;;;;;;;;;;;;19.81;42.86;99948.60;104453;1290;62173;-81
2024/03/28 10:44:21;;;;;;;;;;;;;;;19.84;43.06;99950.84;104508;1291;62145;-79
2024/03/28 10:46:46;;;;;;;;;;;;;;;19.87;42.95;99946.68;104386;1291;62185;-78
2024/03/28 10:49:12;;;;;;;;;;;;;;;19.90;43.03;99945.50;104472;1291;62140;-79
2024/03/28 10:51:42;;;;;;;;;;;;;;;19.92;43.20;99947.31;103887;1291;73363;-79
2024/03/28 10:54:16;;;;;;;;;;;;;;;19.94;43.38;99945.95;103875;1291;75235;-80
2024/03/28 10:56:41;;;;;;;;;;;;;;;19.95;43.31;99940.18;104439;1291;60899;-80
2024/03/28 10:59:08;;;;;;;;;;;;;;;19.94;43.34;99938.44;103927;1291;62148;-80
2024/03/28 11:01:33;;;;;;;;;;;;;;;19.92;43.28;99945.51;104084;1291;62137;-82
2024/03/28 11:04:00;;;;;;;;;;;;;;;19.92;43.19;99953.06;104236;1290;62200;-83
2024/03/28 11:06:26;;;;;;;;;;;;;;;19.92;43.20;99961.61;104778;1291;61232;-81
2024/03/28 11:08:57;;;;;;;;;;;;;;;19.93;43.29;99961.17;104207;1292;62139;-80
2024/03/28 11:11:24;;;;;;;;;;;;;;;19.93;43.02;99960.63;104488;1294;71399;-79
2024/03/28 11:13:50;;;;;;;;;;;;;;;19.94;42.93;99966.84;104716;1292;60595;-79
2024/03/28 11:16:19;;;;;;;;;;;;;;;19.96;42.89;99963.34;104512;1291;62194;-80
2024/03/28 11:18:46;;;;;;;;;;;;;;;19.96;43.08;99960.06;104460;1291;62136;-80
2024/03/28 11:21:13;;;;;;;;;;;;;;;19.96;43.03;99963.63;104069;1291;72503;-80
2024/03/28 11:23:45;;;;;;;;;;;;;;;19.96;42.88;99957.02;104251;1291;62811;-81
2024/03/28 11:26:10;;;;;;;;;;;;;;;19.97;42.94;99960.21;104108;1291;62124;-81
2024/03/28 11:28:45;;;;;;;;;;;;;;;19.96;43.09;99963.46;103825;1291;62190;-81
2024/03/28 11:31:13;;;;;;;;;;;;;;;19.98;42.99;99960.06;103760;1291;73289;-80
2024/03/28 11:34:03;;;;;;;;;;;;;;;20.01;43.08;99967.38;103959;1291;75272;-80
2024/03/28 11:36:32;;;;;;;;;;;;;;;20.01;43.10;99963.60;103881;1292;62227;-80
2024/03/28 11:38:58;;;;;;;;;;;;;;;20.01;42.96;99961.08;103730;1291;63244;-79
2024/03/28 11:41:24;;;;;;;;;;;;;;;20.01;42.83;99960.56;103596;1292;62656;-80
2024/03/28 11:43:50;;;;;;;;;;;;;;;20.01;42.72;99960.95;104048;1292;62169;-80
2024/03/28 11:46:16;;;;;;;;;;;;;;;19.99;42.70;99952.13;103925;1291;62191;-79
2024/03/28 11:48:41;;;;;;;;;;;;;;;19.98;42.69;99953.84;103671;1291;62206;-80
2024/03/28 11:51:07;;;;;;;;;;;;;;;19.98;42.59;99950.45;103535;1290;62204;-79
2024/03/28 11:53:34;;;;;;;;;;;;;;;19.97;42.48;99949.78;103646;1296;72688;-80
2024/03/28 11:56:00;;;;;;;;;;;;;;;19.96;42.40;99948.45;104021;1290;75434;-80
2024/03/28 11:58:26;;;;;;;;;;;;;;;19.96;42.31;99949.89;104090;1291;62719;-79
2024/03/28 12:00:58;;;;;;;;;;;;;;;19.95;42.20;99939.42;104349;1292;62111;-81
2024/03/28 12:03:24;;;;;;;;;;;;;;;19.95;42.17;99943.38;104962;1291;72658;-80
2024/03/28 12:05:50;;;;;;;;;;;;;;;19.97;42.26;99940.16;104692;1291;62073;-81
2024/03/28 12:08:16;;;;;;;;;;;;;;;19.99;42.30;99937.15;104405;1291;62120;-81
2024/03/28 12:10:42;;;;;;;;;;;;;;;20.03;42.38;99936.09;104074;1297;62135;-81
2024/03/28 12:13:08;;;;;;;;;;;;;;;20.08;42.67;99939.96;104248;1291;62211;-81
2024/03/28 12:15:34;;;;;;;;;;;;;;;20.12;42.58;99939.48;104286;1291;62263;-81
2024/03/28 12:17:59;;;;;;;;;;;;;;;20.15;42.77;99946.10;104473;1291;62115;-81
2024/03/28 12:20:25;;;;;;;;;;;;;;;20.16;42.78;99942.90;104986;1290;62118;-81
2024/03/28 12:22:54;;;;;;;;;;;;;;;20.19;42.95;99944.27;104282;1291;60350;-80
2024/03/28 12:25:20;;;;;;;;;;;;;;;20.24;43.02;99944.95;105911;1291;72461;-82
2024/03/28 12:27:55;;;;;;;;;;;;;;;20.29;43.00;99946.76;105907;1291;60081;-80
2024/03/28 12:30:21;;;;;;;;;;;;;;;20.33;43.21;99952.45;105935;1291;59875;-81
2024/03/28 12:32:46;;;;;;;;;;;;;;;20.35;43.03;99949.64;105782;1291;59808;-80
2024/03/28 12:35:12;;;;;;;;;;;;;;;20.37;43.13;99954.13;105874;1291;60246;-81
2024/03/28 12:37:37;;;;;;;;;;;;;;;20.38;43.09;99947.08;105956;1291;60891;-81
2024/03/28 12:40:04;;;;;;;;;;;;;;;20.40;43.27;99942.80;105996;1290;59649;-81